createdAt,value
2023-02-04T00:01:42.618Z,31.6
2023-02-04T00:07:32.830Z,34.7
2023-02-04T00:13:22.508Z,32.4
2023-02-04T00:19:13.461Z,26.9
2023-02-04T00:25:03.220Z,35.2
2023-02-04T00:30:53.082Z,29.9
2023-02-04T00:36:44.283Z,33.6
2023-02-04T00:42:35.807Z,32.9
2023-02-04T00:48:29.784Z,28.6
2023-02-04T00:54:18.857Z,36
2023-02-04T01:00:09.510Z,32.7
2023-02-04T01:05:58.745Z,32.5
2023-02-04T01:11:50.803Z,32.6
2023-02-04T01:17:41.570Z,33.8
2023-02-04T01:23:31.272Z,30.1
2023-02-04T01:29:22.451Z,36.3
2023-02-04T01:35:12.072Z,29.2
2023-02-04T01:41:02.302Z,34
2023-02-04T01:46:53.787Z,31.1
2023-02-04T01:52:43.557Z,32.7
2023-02-04T01:58:32.120Z,29.1
2023-02-04T02:04:21.559Z,33.9
2023-02-04T02:10:10.312Z,29
2023-02-04T02:15:59.541Z,32.6
2023-02-04T02:21:50.108Z,31.9
2023-02-04T02:27:39.146Z,34.5
2023-02-04T02:33:29.922Z,32
2023-02-04T02:39:18.301Z,33
2023-02-04T02:45:08.189Z,32
2023-02-04T02:50:56.991Z,30.6
2023-02-04T02:56:46.197Z,31.7
2023-02-04T03:02:35.298Z,30.9
2023-02-04T03:08:23.806Z,22.7
2023-02-04T03:14:12.008Z,30.8
2023-02-04T03:20:00.634Z,25.6
2023-02-04T03:25:48.854Z,29.9
2023-02-04T03:31:39.410Z,31.8
2023-02-04T03:37:29.095Z,29
2023-02-04T03:43:19.087Z,29.8
2023-02-04T03:49:08.858Z,29.4
2023-02-04T03:54:58.480Z,27.9
2023-02-04T04:00:50.612Z,25.1
2023-02-04T04:06:41.141Z,25.5
2023-02-04T04:12:30.582Z,23.4
2023-02-04T04:18:19.918Z,28.1
2023-02-04T04:24:09.800Z,26.8
2023-02-04T04:29:59.802Z,23.4
2023-02-04T04:35:50.050Z,27.8
2023-02-04T04:41:40.354Z,30.6
2023-02-04T04:47:31.549Z,25.1
2023-02-04T04:53:22.573Z,24.8
2023-02-04T04:59:14.959Z,24.8
2023-02-04T05:05:04.775Z,26.8
2023-02-04T05:10:55.396Z,28.7
2023-02-04T05:16:45.864Z,31.5
2023-02-04T05:22:35.754Z,31.3
2023-02-04T05:28:24.891Z,32.9
2023-02-04T05:34:15.076Z,35.3
2023-02-04T05:40:05.962Z,38.8
2023-02-04T05:45:57.226Z,32.9
2023-02-04T05:51:47.548Z,35.9
2023-02-04T05:57:38.417Z,37.6
2023-02-04T06:03:29.845Z,33
2023-02-04T06:09:18.740Z,37.1
2023-02-04T06:15:10.275Z,34.7
2023-02-04T06:21:02.403Z,37.7
2023-02-04T06:26:52.607Z,40.8
2023-02-04T06:32:41.791Z,36.1
2023-02-04T06:38:38.351Z,30.5
2023-02-04T06:44:28.126Z,41.4
2023-02-04T06:50:21.549Z,34.9
2023-02-04T06:56:14.162Z,38.1
2023-02-04T07:02:03.557Z,37.3
2023-02-04T07:07:54.474Z,34.6
2023-02-04T07:13:46.115Z,43.6
2023-02-04T07:19:37.619Z,37.8
2023-02-04T07:25:27.659Z,42.2
2023-02-04T07:31:18.301Z,40.2
2023-02-04T07:37:08.992Z,41.7
2023-02-04T07:42:58.547Z,43.8
2023-02-04T07:48:50.884Z,39.8
2023-02-04T07:54:40.390Z,40.4
2023-02-04T08:00:28.954Z,36.9
2023-02-04T08:06:20.833Z,39.2
2023-02-04T08:12:10.691Z,38.3
2023-02-04T08:18:02.484Z,43.1
2023-02-04T08:23:52.493Z,35.6
2023-02-04T08:29:43.486Z,38.5
2023-02-04T08:35:34.950Z,42.5
2023-02-04T08:41:25.356Z,42.3
2023-02-04T08:47:15.402Z,50.3
2023-02-04T08:53:05.483Z,36.7
2023-02-04T08:58:56.926Z,37
2023-02-04T09:04:45.787Z,45.1
2023-02-04T09:10:37.142Z,43.4
2023-02-04T09:16:28.188Z,45.1
2023-02-04T09:22:18.047Z,45.4
2023-02-04T09:28:11.202Z,48.3
2023-02-04T09:34:02.401Z,48.3
2023-02-04T09:39:53.819Z,54.9
2023-02-04T09:45:44.856Z,60.6
2023-02-04T09:51:37.811Z,53.3
2023-02-04T09:57:28.135Z,57.3
2023-02-04T10:03:20.099Z,57.6
2023-02-04T10:09:09.790Z,57
2023-02-04T10:15:01.773Z,62.9
2023-02-04T10:20:52.729Z,50.5
2023-02-04T10:26:43.627Z,52.9
2023-02-04T10:32:35.413Z,54.6
2023-02-04T10:38:25.353Z,46.8
2023-02-04T10:44:15.963Z,49.9
2023-02-04T10:50:07.007Z,45.5
2023-02-04T10:55:58.549Z,49.3
2023-02-04T11:01:49.654Z,47.5
2023-02-04T11:07:38.307Z,43.7
2023-02-04T11:13:31.453Z,52.2
2023-02-04T11:19:27.554Z,46.1
2023-02-04T11:25:19.303Z,48.3
2023-02-04T11:31:09.666Z,47.3
2023-02-04T11:36:59.043Z,45.5
2023-02-04T11:42:49.190Z,49.7
2023-02-04T11:48:39.002Z,46
2023-02-04T11:54:29.018Z,48
2023-02-04T12:00:24.761Z,50.4
2023-02-04T12:06:13.672Z,51
2023-02-04T12:12:03.566Z,46.2
2023-02-04T12:17:53.544Z,37.3
2023-02-04T12:23:42.571Z,42.9
2023-02-04T12:29:31.724Z,41.3
2023-02-04T12:35:21.354Z,41
2023-02-04T12:41:11.548Z,41.9
2023-02-04T12:47:03.512Z,42.4
2023-02-04T12:52:53.410Z,41.4
2023-02-04T12:58:44.155Z,41.1
2023-02-04T13:04:35.026Z,38.8
2023-02-04T13:10:26.244Z,39.2
2023-02-04T13:16:16.912Z,38.7
2023-02-04T13:22:07.115Z,38.4
2023-02-04T13:27:56.228Z,43
2023-02-04T13:33:47.046Z,44.4
2023-02-04T13:39:39.035Z,38.6
2023-02-04T13:45:30.866Z,36
2023-02-04T13:51:21.470Z,39.9
2023-02-04T13:57:11.460Z,39.3
2023-02-04T14:03:03.444Z,35.7
2023-02-04T14:08:53.343Z,39
2023-02-04T14:14:44.317Z,38.4
2023-02-04T14:20:37.511Z,44.2
2023-02-04T14:26:29.908Z,44.8
2023-02-04T14:32:20.186Z,41.1
2023-02-04T14:38:13.224Z,38.8
2023-02-04T14:44:03.331Z,39.6
2023-02-04T14:49:56.842Z,42
2023-02-04T14:55:48.138Z,40.3
2023-02-04T15:01:37.334Z,36.3
2023-02-04T15:07:29.950Z,36.2
2023-02-04T15:13:19.463Z,34.1
2023-02-04T15:19:08.813Z,34.5
2023-02-04T15:25:00.549Z,39
2023-02-04T15:30:51.189Z,35.8
2023-02-04T15:36:43.178Z,38.1
2023-02-04T15:42:32.470Z,36.7
2023-02-04T15:48:21.917Z,40.6
2023-02-04T15:54:11.633Z,36.2
2023-02-04T16:00:02.990Z,40.8
2023-02-04T16:05:52.964Z,47.8
2023-02-04T16:11:43.450Z,53.6
2023-02-04T16:17:33.599Z,53.9
2023-02-04T16:23:24.768Z,44.5
2023-02-04T16:29:15.573Z,41.1
2023-02-04T16:35:05.481Z,42.1
2023-02-04T16:40:58.352Z,40.2
2023-02-04T16:46:50.984Z,38.1
2023-02-04T16:52:41.638Z,47.3
2023-02-04T16:58:31.351Z,55.1
2023-02-04T17:04:24.385Z,67.2
2023-02-04T17:10:14.799Z,66
2023-02-04T17:16:07.688Z,147.8
2023-02-04T17:21:59.097Z,117.4
2023-02-04T17:27:52.424Z,114
2023-02-04T17:33:42.838Z,129.8
2023-02-04T17:39:41.282Z,98.7
2023-02-04T17:45:34.158Z,43.6
2023-02-04T17:51:25.012Z,81.1
2023-02-04T17:57:16.372Z,99
2023-02-04T18:03:06.298Z,91.5
2023-02-04T18:08:58.025Z,125.8
2023-02-04T18:14:47.761Z,110
2023-02-04T18:20:39.848Z,199.4
2023-02-04T18:26:28.471Z,108.4
2023-02-04T18:32:19.204Z,112
2023-02-04T18:38:09.422Z,74.7
2023-02-04T18:43:59.414Z,53.9
2023-02-04T18:49:51.670Z,41.4
2023-02-04T18:55:42.319Z,66.5
2023-02-04T19:01:34.365Z,64.8
2023-02-04T19:07:25.713Z,77.9
2023-02-04T19:13:16.904Z,84.9
2023-02-04T19:19:06.891Z,62
2023-02-04T19:24:56.628Z,50.9
2023-02-04T19:30:46.911Z,47.3
2023-02-04T19:36:37.993Z,56.1
2023-02-04T19:42:33.867Z,68.3
2023-02-04T19:48:23.231Z,79.8
2023-02-04T19:54:14.455Z,43.1
2023-02-04T20:00:04.723Z,46.2
2023-02-04T20:05:53.787Z,44.6
2023-02-04T20:11:45.319Z,47.3
2023-02-04T20:17:35.170Z,50.7
2023-02-04T20:23:24.488Z,45.8
2023-02-04T20:29:13.564Z,46.7
2023-02-04T20:35:02.802Z,40.7
2023-02-04T20:40:53.686Z,51
2023-02-04T20:46:44.270Z,46.4
2023-02-04T20:52:35.256Z,41.5
2023-02-04T20:58:25.899Z,42.2
2023-02-04T21:04:15.750Z,43
2023-02-04T21:10:06.638Z,43.1
2023-02-04T21:15:57.483Z,42.2
2023-02-04T21:21:48.698Z,44
2023-02-04T21:27:38.872Z,48.9
2023-02-04T21:33:29.121Z,40.4
2023-02-04T21:39:19.301Z,44
2023-02-04T21:45:09.897Z,45
2023-02-04T21:51:05.644Z,45.6
2023-02-04T21:56:58.683Z,45.2
2023-02-04T22:02:48.517Z,48.6
2023-02-04T22:08:39.606Z,44.1
2023-02-04T22:14:30.308Z,53.3
2023-02-04T22:20:19.716Z,52.3
2023-02-04T22:26:11.284Z,46.6
2023-02-04T22:32:01.027Z,52.6
2023-02-04T22:37:50.695Z,48.1
2023-02-04T22:43:43.411Z,42.7
2023-02-04T22:49:36.009Z,48.3
2023-02-04T22:55:25.458Z,47.5
2023-02-04T23:01:14.996Z,48.5
2023-02-04T23:07:05.109Z,46.3
2023-02-04T23:12:55.341Z,48.7
2023-02-04T23:18:48.984Z,48.8
2023-02-04T23:24:38.107Z,48.6
2023-02-04T23:30:31.620Z,46
2023-02-04T23:36:22.160Z,43.1
2023-02-04T23:42:12.494Z,44.3
2023-02-04T23:48:03.149Z,41
2023-02-04T23:53:53.653Z,44.4
2023-02-04T23:59:43.300Z,49.1
